^^
Datos históricos de la estación: Murcia-Puente Tocinos
Diario Informe para Noviembre 23, 2019 Unidades:  Ingés    Métrico   Ambas
Diario Semanal Mensual Anual
  Máxima: Mínima: Promedio:
Temperatura: 64 °F 52.2 °F 59.7 °F
Punto de rocio: 53.1 °F 33.6 °F 39.2 °F
Humedad: 97% 32.8% 49%
Velocidad viento: 18.1mph 0mph 9.2mph
Racha viento: 38mph - -
Viento- - SO
Presión: 29.8 in 29.3 in -
Precipitación: 0.01 in    
 
 
Tabla de datos para Noviembre 23, 2019
Hora Temperatura Punto de rocio Presión Viento Velocidad viento Racha viento Humedad Intensidad lluvia(por hora) Nubes
00:04 54.1 °F 53.1 °F 29.4 in SE 1.1 mph 3.6 mph 96% 0 in
00:09 54.1 °F 53.1 °F 29.4 in Calm   5.8 mph 96% 0 in
00:14 54.1 °F 53.1 °F 29.4 in SE 1.4 mph 6 mph 96% 0 in
00:19 54.1 °F 53.1 °F 29.4 in SE 2 mph 3.1 mph 96% 0 in
00:24 54.1 °F 53.1 °F 29.4 in SSE 1.6 mph 3.5 mph 96% 0 in
00:29 54 °F 52.9 °F 29.4 in SSO 1.4 mph 3 mph 96.1% 0 in
00:34 54.1 °F 53.1 °F 29.4 in SSO 0.4 mph 3.6 mph 96.4% 0 in
00:39 54 °F 52.7 °F 29.4 in Calm   4 mph 96% 0 in
00:44 53.6 °F 52.5 °F 29.4 in SSO 0.9 mph 4 mph 96% 0 in
00:49 53.2 °F 52.2 °F 29.4 in Oeste 1.4 mph 6.9 mph 96% 0 in
00:54 52.9 °F 51.8 °F 29.4 in SO 2.5 mph 7 mph 96% 0 in
00:59 52.5 °F 51.4 °F 29.4 in SE 3.1 mph 6 mph 96.2% 0 in
01:04 52.7 °F 51.8 °F 29.4 in OSO 2.4 mph 5 mph 97% 0 in
01:09 52.7 °F 52 °F 29.4 in Oeste 2 mph 5 mph 97% 0 in
01:14 52.7 °F 52 °F 29.4 in Oeste 1.6 mph 2.9 mph 97% 0 in
01:19 52.5 °F 51.6 °F 29.4 in SO 1.4 mph 4.6 mph 96.4% 0 in
01:24 52.3 °F 51.3 °F 29.4 in Oeste 1.7 mph 5.2 mph 96% 0 in
01:29 52.2 °F 51.3 °F 29.4 in SO 1.8 mph 5 mph 96.4% 0 in
01:34 52.3 °F 51.6 °F 29.4 in SSO 2.7 mph 5 mph 97% 0 in
01:39 52.5 °F 51.6 °F 29.4 in SSO 3.1 mph 5.9 mph 97% 0 in
01:44 52.7 °F 52 °F 29.4 in SSO 2.4 mph 6.4 mph 97% 0 in
01:49 52.9 °F 52.2 °F 29.4 in SO 2 mph 7.4 mph 97% 0 in
01:54 53.1 °F 52.2 °F 29.4 in SSO 4.2 mph 10.7 mph 97% 0 in
01:59 53.8 °F 52.9 °F 29.4 in SSO 5.2 mph 15 mph 96.8% 0 in
02:04 55.8 °F 52.7 °F 29.4 in SSO 7.6 mph 17.3 mph 89.5% 0 in
02:09 57.6 °F 51.1 °F 29.4 in SSO 8.7 mph 17 mph 79.4% 0 in
02:14 58.3 °F 49.8 °F 29.4 in Sur 8.7 mph 17.3 mph 73.8% 0 in
02:19 59.2 °F 48 °F 29.4 in Sur 8.7 mph 20.8 mph 66.6% 0 in
02:24 60.3 °F 46.8 °F 29.4 in Sur 10 mph 21 mph 60.9% 0 in
02:29 61.3 °F 45.1 °F 29.4 in Sur 10.7 mph 18.4 mph 55.4% 0 in
02:34 61.7 °F 45 °F 29.4 in Sur 10.3 mph 18 mph 54.3% 0 in
02:39 61.9 °F 44.8 °F 29.4 in Sur 10 mph 17 mph 53.6% 0 in
02:44 61.7 °F 45.1 °F 29.4 in Sur 9.4 mph 15 mph 54.6% 0 in
02:49 61.2 °F 44.6 °F 29.4 in Sur 9.2 mph 14 mph 54.5% 0 in
02:54 61.2 °F 44.2 °F 29.4 in Sur 8.7 mph 14 mph 54% 0 in
02:59 60.8 °F 43.5 °F 29.4 in Sur 8.5 mph 16.3 mph 52.9% 0 in
03:04 61.5 °F 42.6 °F 29.4 in SSE 7.9 mph 16.1 mph 50% 0 in
03:09 61.5 °F 42.8 °F 29.4 in Sur 7.6 mph 15 mph 50% 0 in
03:14 61.2 °F 42.6 °F 29.4 in SSE 7.6 mph 14 mph 50.6% 0 in
03:19 60.6 °F 42.4 °F 29.4 in SSE 7.6 mph 16.1 mph 50.9% 0 in
03:24 60.4 °F 42.4 °F 29.4 in SSE 8.2 mph 16 mph 51.5% 0 in
03:29 60.3 °F 42.3 °F 29.4 in SSE 8.5 mph 13 mph 51.4% 0 in
03:34 60.3 °F 42.1 °F 29.4 in Sur 7.4 mph 12.7 mph 51.1% 0 in
03:39 60.1 °F 42.3 °F 29.4 in SSE 6.9 mph 13 mph 51.7% 0 in
03:44 59.5 °F 42.4 °F 29.4 in Sur 6.2 mph 9.2 mph 53% 0 in
03:49 59.2 °F 42.4 °F 29.4 in Sur 5.9 mph 11.8 mph 53.8% 0 in
03:54 59.2 °F 42.1 °F 29.4 in SSO 6.2 mph 16.1 mph 53.2% 0 in
03:59 59.9 °F 41.5 °F 29.3 in SO 6.4 mph 17.5 mph 50.8% 0 in
04:04 60.6 °F 41.2 °F 29.3 in SSO 8.3 mph 20.7 mph 48.6% 0 in
04:09 61 °F 41.2 °F 29.3 in SSO 9.2 mph 21 mph 48% 0 in
04:14 61 °F 41.2 °F 29.3 in SSO 10.3 mph 19.7 mph 48% 0 in
04:19 61.2 °F 41.2 °F 29.3 in SSO 10.7 mph 20 mph 48% 0 in
04:24 61 °F 41.5 °F 29.3 in SSO 10.4 mph 20 mph 48.8% 0 in
04:29 60.6 °F 41.7 °F 29.3 in SSO 10.2 mph 17 mph 49.8% 0 in
04:34 60.4 °F 41.9 °F 29.3 in SSO 10.2 mph 16.1 mph 50.4% 0 in
04:39 60.1 °F 42.1 °F 29.3 in SSO 10.2 mph 16.1 mph 51.3% 0 in
04:44 59.5 °F 42.1 °F 29.3 in SSO 9.9 mph 16 mph 52.1% 0 in
04:49 59.4 °F 42.3 °F 29.3 in SSO 9.7 mph 14 mph 53% 0 in
04:54 59.2 °F 42.3 °F 29.4 in SO 7.5 mph 11 mph 53.6% 0 in
04:59 58.6 °F 42.4 °F 29.4 in ONO 6.4 mph 8 mph 54.9% 0 in
05:04 58.3 °F 42.8 °F 29.4 in ONO 5 mph 7 mph 56.3% 0 in
05:09 57.7 °F 43 °F 29.4 in Oeste 4.3 mph 6 mph 57.5% 0 in
05:14 57.4 °F 43 °F 29.4 in Oeste 3.5 mph 9.7 mph 58.7% 0 in
05:19 56.8 °F 43 °F 29.4 in Oeste 3.1 mph 11.4 mph 59.7% 0 in
05:24 57 °F 42.4 °F 29.4 in Oeste 5.2 mph 16.3 mph 58.1% 0 in
05:29 58.1 °F 41.9 °F 29.4 in Oeste 6.2 mph 17.3 mph 54.8% 0 in
05:34 59.2 °F 41.4 °F 29.4 in OSO 8.2 mph 31.3 mph 51.8% 0 in
05:39 60.4 °F 41.2 °F 29.4 in OSO 9.2 mph 31 mph 49.1% 0 in
05:44 60.6 °F 41.4 °F 29.4 in OSO 15 mph 31.3 mph 49% 0 in
05:49 60.4 °F 41.5 °F 29.4 in OSO 17.8 mph 31 mph 49.5% 0 in
05:54 60.1 °F 41.7 °F 29.4 in OSO 15.7 mph 23 mph 50.7% 0 in
05:59 59.5 °F 41.7 °F 29.4 in OSO 14.7 mph 17.3 mph 51.9% 0 in
06:04 59.4 °F 41.9 °F 29.4 in SO 10.5 mph 17 mph 52.4% 0 in
06:09 59.2 °F 41.9 °F 29.4 in SO 8.7 mph 13.5 mph 53% 0 in
06:14 59 °F 41.9 °F 29.4 in SO 8 mph 16.1 mph 53% 0 in
06:19 58.8 °F 41.9 °F 29.4 in OSO 7.6 mph 18.4 mph 53.3% 0 in
06:24 58.6 °F 42.1 °F 29.4 in SO 8.2 mph 18 mph 54% 0 in
06:29 58.5 °F 42.3 °F 29.4 in SO 8.5 mph 13 mph 55% 0 in
06:34 58.3 °F 42.3 °F 29.4 in SSO 8.3 mph 13.8 mph 55% 0 in
06:39 58.3 °F 42.1 °F 29.4 in SSO 8.1 mph 16.1 mph 55% 0 in
06:44 58.3 °F 42.3 °F 29.4 in SO 9.2 mph 18.5 mph 55% 0 in
06:49 58.3 °F 42.1 °F 29.4 in SO 9.7 mph 19 mph 54.9% 0 in
06:54 58.3 °F 42.1 °F 29.4 in SO 9.7 mph 21 mph 54.7% 0 in
06:59 57.9 °F 41.9 °F 29.4 in SO 9.7 mph 21 mph 55.2% 0 in
07:04 57.7 °F 42.1 °F 29.4 in SO 8.9 mph 18.5 mph 56% 0 in
07:09 57.6 °F 42.1 °F 29.4 in SO 8.5 mph 21.9 mph 56% 0 in
07:14 57.4 °F 42.1 °F 29.4 in SO 9.5 mph 22 mph 56.4% 0 in
07:19 57 °F 42.1 °F 29.4 in SO 10 mph 17 mph 57% 0 in
07:24 56.8 °F 41.9 °F 29.4 in SO 7.3 mph 13 mph 57.1% 0 in
07:29 56.7 °F 42.1 °F 29.4 in ONO 5.9 mph 6 mph 58% 0 in
07:34 56.5 °F 42.1 °F 29.4 in ONO 3.2 mph 4 mph 58.3% 0 in
07:39 56.1 °F 42.1 °F 29.4 in ONO 1.8 mph 4.6 mph 59% 0 in
07:44 56.1 °F 42.1 °F 29.4 in SSO 1.6 mph 5.9 mph 59.2% 0 in
07:49 55.9 °F 42.3 °F 29.4 in SE 1.4 mph 6 mph 60.2% 0 in
07:54 55.6 °F 42.4 °F 29.4 in SE 2.1 mph 5 mph 61% 0 in
07:59 55.6 °F 42.3 °F 29.4 in SE 2.4 mph 5.2 mph 61% 0 in
08:04 55.4 °F 42.4 °F 29.4 in SE 2.9 mph 6.9 mph 61.6% 0 in
08:09 55.2 °F 42.4 °F 29.4 in SE 3.1 mph 7 mph 62% 0 in
08:14 55.2 °F 42.4 °F 29.4 in ESE 3.9 mph 6.9 mph 62% 0 in
08:19 55.2 °F 42.4 °F 29.4 in SSE 4.3 mph 7 mph 62% 0 in
08:24 55.4 °F 42.1 °F 29.4 in SSO 4.1 mph 9.2 mph 60.9% 0 in
08:29 55.9 °F 42.1 °F 29.4 in SO 4 mph 10.7 mph 59.4% 0 in
08:34 56.5 °F 41.5 °F 29.4 in SO 5.5 mph 17.8 mph 57.4% 0 in
08:39 57.2 °F 40.5 °F 29.4 in SO 6.2 mph 20.7 mph 53.2% 0 in
08:44 58.1 °F 39.6 °F 29.4 in SO 9.8 mph 26.8 mph 50.3% 0 in
08:49 58.5 °F 39.4 °F 29.4 in SO 11.4 mph 27 mph 49% 0 in
08:54 58.6 °F 38.8 °F 29.4 in SO 12.5 mph 23.5 mph 47.6% 0 in
08:59 58.8 °F 38.5 °F 29.4 in SO 13 mph 25.6 mph 46.6% 0.01 in
09:04 59.2 °F 38.3 °F 29.4 in SO 13.5 mph 26 mph 45.7% 0.01 in
09:09 59.2 °F 38.7 °F 29.4 in OSO 13.7 mph 21 mph 46.7% 0.01 in
09:14 58.8 °F 38.8 °F 29.4 in Oeste 11.2 mph 18.4 mph 47.3% 0.01 in
09:19 58.8 °F 38.7 °F 29.4 in OSO 10 mph 18.4 mph 47.1% 0.01 in
09:24 59 °F 38.5 °F 29.5 in OSO 10.1 mph 21.3 mph 46.5% 0.01 in
09:29 59.4 °F 38.5 °F 29.5 in OSO 10.2 mph 21.9 mph 45.9% 0.01 in
09:34 59.5 °F 38.1 °F 29.5 in Oeste 11.7 mph 22 mph 45% 0.01 in
09:39 59.5 °F 37.9 °F 29.5 in Oeste 12.3 mph 24.6 mph 44.6% 0.01 in
09:44 59.7 °F 38.3 °F 29.5 in Oeste 12.3 mph 25 mph 44.8% 0.01 in
09:49 60.1 °F 37.9 °F 29.5 in Oeste 12.3 mph 32.4 mph 43.9% 0.01 in
09:54 60.3 °F 37.4 °F 29.5 in OSO 13.1 mph 32.2 mph 42.5% 0.01 in
09:59 60.4 °F 37.4 °F 29.5 in OSO 13.5 mph 32 mph 42.3% 0.01 in
10:04 60.6 °F 37.4 °F 29.5 in Oeste 15.8 mph 32 mph 42.1% 0 in
10:09 60.6 °F 37.4 °F 29.5 in Oeste 16.8 mph 38 mph 42% 0 in
10:14 60.6 °F 37.8 °F 29.5 in OSO 17.7 mph 38 mph 42.6% 0 in
10:19 60.6 °F 38.1 °F 29.5 in OSO 18.1 mph 32 mph 43% 0 in
10:24 60.8 °F 37.6 °F 29.5 in OSO 15 mph 32.4 mph 42.1% 0 in
10:29 61 °F 37.8 °F 29.5 in OSO 13.5 mph 32 mph 42% 0 in
10:34 61.2 °F 37.9 °F 29.5 in OSO 14.7 mph 28 mph 42% 0 in
10:39 61.2 °F 37.8 °F 29.5 in Oeste 15.2 mph 25.3 mph 41.8% 0 in
10:44 61.3 °F 37.9 °F 29.5 in OSO 14 mph 25 mph 42% 0 in
10:49 61.5 °F 38.1 °F 29.5 in OSO 13.5 mph 27.9 mph 41.8% 0 in
10:54 61.5 °F 38.1 °F 29.5 in OSO 14.6 mph 28 mph 41.9% 0 in
10:59 61.7 °F 38.1 °F 29.5 in Oeste 15.2 mph 26.8 mph 41.5% 0 in
11:04 61.9 °F 37.9 °F 29.5 in Oeste 14.4 mph 28.8 mph 41% 0 in
11:09 62.1 °F 37.9 °F 29.5 in OSO 14 mph 29 mph 40.8% 0 in
11:14 62.2 °F 37.4 °F 29.5 in OSO 14.4 mph 25 mph 39.6% 0 in
11:19 62.4 °F 37.4 °F 29.5 in OSO 14.5 mph 25.6 mph 39.3% 0 in
11:24 62.6 °F 36.9 °F 29.5 in OSO 14.2 mph 26 mph 38.2% 0 in
11:29 62.8 °F 36.1 °F 29.5 in OSO 14 mph 25 mph 37.1% 0 in
11:34 63 °F 36.3 °F 29.5 in OSO 12.6 mph 24 mph 37% 0 in
11:39 63.1 °F 36 °F 29.5 in OSO 11.8 mph 21.3 mph 36.5% 0 in
11:44 63.1 °F 36.3 °F 29.5 in OSO 11.6 mph 22.5 mph 36.8% 0 in
11:49 63.1 °F 36.3 °F 29.5 in OSO 11.4 mph 23.5 mph 36.9% 0 in
11:54 63.3 °F 36 °F 29.5 in OSO 12.5 mph 24.2 mph 36% 0 in
11:59 63.3 °F 36.1 °F 29.5 in OSO 13 mph 25.6 mph 36.3% 0 in
12:04 63.3 °F 35.8 °F 29.5 in OSO 13.5 mph 26 mph 35.9% 0 in
12:09 63.5 °F 36.3 °F 29.5 in OSO 13.7 mph 25 mph 36.4% 0 in
12:14 63.7 °F 36.7 °F 29.5 in Oeste 12.1 mph 33.4 mph 36.7% 0 in
12:19 63.5 °F 36.5 °F 29.5 in OSO 11.4 mph 33 mph 36.8% 0 in
12:24 63.3 °F 36.5 °F 29.5 in OSO 13.4 mph 31.1 mph 36.9% 0 in
12:29 63.5 °F 36.5 °F 29.5 in OSO 14.5 mph 30 mph 36.7% 0 in
12:34 63.3 °F 36 °F 29.5 in Oeste 14.2 mph 34.2 mph 36.1% 0 in
12:39 63 °F 36.1 °F 29.5 in Oeste 14 mph 35 mph 36.7% 0 in
12:44 63 °F 36 °F 29.5 in Oeste 16 mph 35 mph 36.6% 0 in
12:49 63 °F 36.3 °F 29.5 in Oeste 17 mph 30 mph 36.9% 0 in
12:54 63.1 °F 36.5 °F 29.5 in Oeste 16.5 mph 29.9 mph 37% 0 in
12:59 63.7 °F 36.9 °F 29.5 in Oeste 16.3 mph 30 mph 37% 0 in
13:04 63.7 °F 36.5 °F 29.5 in Oeste 14 mph 29 mph 36.4% 0 in
13:09 63.5 °F 36.1 °F 29.6 in Oeste 13 mph 29.1 mph 36.2% 0 in
13:14 63 °F 36.1 °F 29.6 in Oeste 14 mph 32.2 mph 36.7% 0 in
13:19 62.6 °F 35.8 °F 29.6 in Oeste 14.5 mph 32 mph 36.8% 0 in
13:24 62.4 °F 35.8 °F 29.6 in Oeste 16.5 mph 30 mph 37% 0 in
13:29 62.2 °F 35.8 °F 29.6 in Oeste 17.5 mph 25 mph 37.2% 0 in
13:34 62.2 °F 36.1 °F 29.6 in Oeste 14.9 mph 24.2 mph 37.7% 0 in
13:39 62.2 °F 35.8 °F 29.6 in Oeste 13.7 mph 31.1 mph 37.2% 0 in
13:44 62.2 °F 35.8 °F 29.6 in Oeste 13.9 mph 31 mph 37.2% 0 in
13:49 62.4 °F 35.8 °F 29.6 in Oeste 14 mph 28.4 mph 37% 0 in
13:54 62.4 °F 35.8 °F 29.6 in Oeste 13.7 mph 29 mph 37% 0 in
13:59 62.4 °F 35.8 °F 29.5 in Oeste 13.5 mph 27.5 mph 37% 0 in
14:04 62.4 °F 35.8 °F 29.5 in Oeste 14.4 mph 28 mph 37% 0 in
14:09 62.4 °F 35.2 °F 29.6 in Oeste 14.7 mph 28.8 mph 36.1% 0 in
14:14 62.4 °F 35.2 °F 29.6 in Oeste 15.3 mph 29.1 mph 36% 0 in
14:19 62.8 °F 35.4 °F 29.6 in Oeste 15.6 mph 29 mph 36% 0 in
14:24 63.3 °F 36.3 °F 29.6 in Oeste 15 mph 28 mph 36.4% 0 in
14:29 63.7 °F 36.3 °F 29.6 in Oeste 14.7 mph 22.3 mph 36% 0 in
14:34 63.9 °F 36.3 °F 29.6 in ONO 12.7 mph 22 mph 36% 0 in
14:39 63.9 °F 35.2 °F 29.6 in Oeste 11.8 mph 23.5 mph 34.5% 0 in
14:44 63.9 °F 35.2 °F 29.6 in Oeste 12.9 mph 23 mph 34.4% 0 in
14:49 63.9 °F 34.3 °F 29.6 in Oeste 13.5 mph 32.2 mph 33.3% 0 in
14:54 63.7 °F 34 °F 29.6 in ONO 15 mph 32 mph 33% 0 in
14:59 63.7 °F 34.5 °F 29.6 in ONO 15.6 mph 28.8 mph 33.6% 0 in
15:04 63.7 °F 34.7 °F 29.6 in Oeste 15 mph 29 mph 33.9% 0 in
15:09 63.7 °F 34.7 °F 29.6 in Oeste 14.7 mph 24 mph 34% 0 in
15:14 63.9 °F 34.5 °F 29.6 in Oeste 14 mph 25.3 mph 33.4% 0 in
15:19 64 °F 34.3 °F 29.6 in OSO 13.7 mph 25 mph 33% 0 in
15:24 64 °F 34.2 °F 29.6 in Oeste 13.2 mph 25.3 mph 32.8% 0 in
15:29 64 °F 34.3 °F 29.6 in OSO 13 mph 25 mph 33% 0 in
15:34 64 °F 34.3 °F 29.6 in Oeste 11.4 mph 19 mph 33% 0 in
15:39 63.7 °F 34 °F 29.6 in Oeste 10.7 mph 23.7 mph 33% 0 in
15:44 63.5 °F 34 °F 29.6 in OSO 11.8 mph 24.2 mph 33% 0 in
15:49 63.3 °F 33.8 °F 29.6 in Oeste 12.3 mph 25.3 mph 33% 0 in
15:54 63.3 °F 33.6 °F 29.6 in Oeste 12.8 mph 25 mph 33% 0 in
15:59 63.3 °F 33.6 °F 29.6 in Oeste 13 mph 25.6 mph 33% 0 in
16:04 63.3 °F 34.2 °F 29.6 in ONO 13 mph 26 mph 33.7% 0 in
16:09 63.3 °F 34 °F 29.6 in Oeste 13 mph 25 mph 33.4% 0 in
16:14 63.3 °F 34.5 °F 29.6 in Oeste 11.9 mph 20.7 mph 34% 0 in
16:19 63.7 °F 34.2 °F 29.6 in Oeste 11.4 mph 27.9 mph 33.2% 0 in
16:24 63.7 °F 34.7 °F 29.6 in Oeste 12.2 mph 28 mph 33.8% 0 in
16:29 63.7 °F 34.2 °F 29.6 in Oeste 12.5 mph 22.3 mph 33.2% 0 in
16:34 63.5 °F 34 °F 29.6 in Oeste 11.3 mph 25.3 mph 33.1% 0 in
16:39 63.3 °F 34.3 °F 29.6 in Oeste 10.7 mph 25.3 mph 33.8% 0 in
16:44 63.3 °F 34.3 °F 29.6 in Oeste 12.2 mph 27.6 mph 33.9% 0 in
16:49 63.1 °F 34.3 °F 29.6 in ONO 13 mph 28 mph 34% 0 in
16:54 63.1 °F 34.3 °F 29.6 in Oeste 13.7 mph 25 mph 34% 0 in
16:59 63.1 °F 34.7 °F 29.6 in Oeste 14 mph 21 mph 34.6% 0 in
17:04 63.1 °F 34.7 °F 29.6 in Oeste 11.7 mph 20.7 mph 34.6% 0 in
17:09 63 °F 34.9 °F 29.6 in Oeste 10.7 mph 21 mph 35% 0 in
17:14 63 °F 34.9 °F 29.6 in Oeste 9.3 mph 18.5 mph 35% 0 in
17:19 62.8 °F 34.9 °F 29.6 in Oeste 8.7 mph 21.5 mph 35.4% 0 in
17:24 62.4 °F 34.7 °F 29.6 in Oeste 9.7 mph 22 mph 35.3% 0 in
17:29 62.4 °F 35.1 °F 29.6 in OSO 10.2 mph 17.3 mph 36% 0 in
17:34 62.2 °F 34.9 °F 29.6 in OSO 9.9 mph 17.3 mph 36% 0 in
17:39 62.1 °F 35.4 °F 29.6 in OSO 9.7 mph 16.3 mph 36.9% 0 in
17:44 62.1 °F 35.4 °F 29.6 in SO 9.7 mph 19.6 mph 37% 0 in
17:49 61.9 °F 35.2 °F 29.6 in OSO 9.7 mph 21.3 mph 37% 0 in
17:54 61.7 °F 35.2 °F 29.7 in OSO 10.7 mph 21.3 mph 37% 0 in
17:59 61.7 °F 35.1 °F 29.7 in OSO 11.2 mph 21.3 mph 37% 0 in
18:04 61.7 °F 35.1 °F 29.7 in SO 11.6 mph 21 mph 37% 0 in
18:09 61.5 °F 35.1 °F 29.7 in OSO 11.8 mph 21.9 mph 37% 0 in
18:14 61.3 °F 35.1 °F 29.7 in SO 9.7 mph 22 mph 37.3% 0 in
18:19 61.2 °F 35.1 °F 29.7 in SO 8.7 mph 20.8 mph 37.4% 0 in
18:24 61.3 °F 35.1 °F 29.7 in SO 9.8 mph 21 mph 37.5% 0 in
18:29 61.2 °F 35.2 °F 29.7 in SO 10.2 mph 18.4 mph 38% 0 in
18:34 61.2 °F 35.2 °F 29.7 in SO 10.1 mph 18.5 mph 38% 0 in
18:39 61.2 °F 35.2 °F 29.7 in SSO 10 mph 19 mph 38% 0 in
18:44 61 °F 35.1 °F 29.7 in SO 9.4 mph 16.3 mph 38% 0 in
18:49 60.6 °F 34.9 °F 29.7 in SO 9.2 mph 17.3 mph 38% 0 in
18:54 60.6 °F 34.9 °F 29.7 in SO 9.2 mph 18.4 mph 38.1% 0 in
18:59 60.4 °F 35.2 °F 29.7 in SO 9.2 mph 18 mph 38.9% 0 in
19:04 60.3 °F 35.2 °F 29.7 in SO 7.6 mph 16 mph 39% 0 in
19:09 60.3 °F 35.2 °F 29.7 in SO 6.9 mph 15 mph 39% 0 in
19:14 60.3 °F 35.2 °F 29.7 in SO 7.2 mph 12 mph 39% 0 in
19:19 60.1 °F 35.1 °F 29.7 in SO 7.4 mph 13.8 mph 39% 0 in
19:24 60.1 °F 35.1 °F 29.7 in SO 7.1 mph 14 mph 39% 0 in
19:29 59.9 °F 34.9 °F 29.7 in SO 6.9 mph 19.6 mph 39% 0 in
19:34 59.9 °F 34.9 °F 29.7 in SO 6.6 mph 20 mph 39% 0 in
19:39 60.1 °F 35.1 °F 29.7 in Oeste 6.4 mph 11.8 mph 39% 0 in
19:44 59.9 °F 34.9 °F 29.7 in Oeste 6.1 mph 16.1 mph 39% 0 in
19:49 60.1 °F 35.1 °F 29.7 in OSO 5.9 mph 17.3 mph 39% 0 in
19:54 60.1 °F 35.1 °F 29.7 in Oeste 7.6 mph 20.8 mph 39% 0 in
19:59 60.1 °F 35.1 °F 29.7 in OSO 8.5 mph 21 mph 39% 0 in
20:04 59.7 °F 34.9 °F 29.7 in Oeste 9.3 mph 18.4 mph 39.2% 0 in
20:09 59.7 °F 35.2 °F 29.7 in OSO 9.7 mph 17 mph 40% 0 in
20:14 59.5 °F 35.2 °F 29.7 in Oeste 9.3 mph 16 mph 40% 0 in
20:19 59.5 °F 35.2 °F 29.7 in Oeste 9.2 mph 15 mph 40% 0 in
20:24 59.4 °F 35.1 °F 29.7 in Oeste 8.8 mph 16.1 mph 40% 0 in
20:29 59.4 °F 35.1 °F 29.7 in Oeste 8.5 mph 16 mph 40% 0 in
20:34 59.2 °F 35.1 °F 29.7 in Oeste 7.9 mph 15 mph 40.1% 0 in
20:39 59 °F 35.4 °F 29.7 in Oeste 7.6 mph 13 mph 41% 0 in
20:44 58.6 °F 35.1 °F 29.7 in OSO 6.8 mph 12 mph 41% 0 in
20:49 58.6 °F 35.2 °F 29.7 in OSO 6.4 mph 12 mph 41.5% 0 in
20:54 58.5 °F 35.4 °F 29.7 in OSO 5.6 mph 9.7 mph 42% 0 in
20:59 58.5 °F 35.4 °F 29.7 in SO 5.2 mph 10.4 mph 42% 0 in
21:04 58.3 °F 35.2 °F 29.7 in SO 5.3 mph 10 mph 42% 0 in
21:09 58.3 °F 35.2 °F 29.7 in SSO 5.4 mph 9 mph 42% 0 in
21:14 58.3 °F 35.4 °F 29.7 in SE 4.5 mph 7 mph 42.1% 0 in
21:19 57.9 °F 35.6 °F 29.7 in Oeste 4 mph 7.4 mph 43% 0 in
21:24 57.9 °F 35.8 °F 29.8 in OSO 3.4 mph 9.2 mph 43.6% 0 in
21:29 57.7 °F 36.1 °F 29.8 in Oeste 3.1 mph 12.3 mph 44% 0 in
21:34 57.7 °F 36 °F 29.8 in Oeste 3.7 mph 13 mph 44% 0 in
21:39 57.7 °F 36 °F 29.8 in Oeste 4 mph 13 mph 44% 0 in
21:44 57.9 °F 36.1 °F 29.8 in Oeste 5.3 mph 13 mph 44% 0 in
21:49 57.7 °F 36 °F 29.8 in ONO 5.9 mph 13 mph 44% 0 in
21:54 57.7 °F 36.5 °F 29.8 in ONO 5.5 mph 10.4 mph 45% 0 in
21:59 57.6 °F 36.3 °F 29.8 in Oeste 5.4 mph 9.2 mph 45% 0 in
22:04 57.6 °F 36.3 °F 29.8 in Oeste 4.4 mph 12.7 mph 45% 0 in
22:09 57.6 °F 36.3 °F 29.8 in Oeste 4 mph 13 mph 45% 0 in
22:14 57.6 °F 36.7 °F 29.8 in Oeste 4.2 mph 12 mph 45.8% 0 in
22:19 57.4 °F 36.9 °F 29.8 in OSO 4.3 mph 13 mph 46% 0 in
22:24 57.6 °F 36.9 °F 29.8 in OSO 5.3 mph 14 mph 46% 0 in
22:29 57.7 °F 37 °F 29.8 in SO 5.9 mph 14 mph 46% 0 in
22:34 57.6 °F 36.9 °F 29.8 in SSO 5.5 mph 11 mph 46% 0 in
22:39 57.4 °F 36.7 °F 29.8 in SSE 5.4 mph 9.2 mph 46% 0 in
22:44 56.5 °F 36.1 °F 29.8 in SE 5 mph 10.7 mph 46.5% 0 in
22:49 55.9 °F 36 °F 29.8 in SSE 4.7 mph 11 mph 47% 0 in
22:54 55.9 °F 36 °F 29.8 in SSE 6.2 mph 11.5 mph 47% 0 in
22:59 55.9 °F 36 °F 29.8 in SE 6.9 mph 12 mph 47% 0 in
23:04 55.9 °F 36.1 °F 29.8 in SSE 6.5 mph 14.5 mph 47% 0 in
23:09 56.5 °F 36.1 °F 29.8 in SSE 6.4 mph 18.4 mph 46.3% 0 in
23:14 56.8 °F 36.3 °F 29.8 in SSE 8.6 mph 18.5 mph 46% 0 in
23:19 56.8 °F 36.3 °F 29.8 in SSE 9.7 mph 19 mph 46% 0 in
23:24 57 °F 36.3 °F 29.8 in SSE 10.7 mph 18 mph 45.8% 0 in
23:29 57 °F 36 °F 29.8 in Sur 11.2 mph 16.1 mph 45% 0 in
23:34 57.2 °F 36 °F 29.8 in Sur 9.5 mph 16 mph 45% 0 in
23:39 57.4 °F 35.8 °F 29.8 in SSO 8.7 mph 10 mph 44.3% 0 in
23:44 57.2 °F 35.6 °F 29.8 in SSO 6.5 mph 10.4 mph 44.2% 0 in
23:49 57 °F 35.8 °F 29.8 in Sur 5.4 mph 10 mph 45% 0 in
23:54 56.8 °F 35.8 °F 29.8 in SSO 6 mph 15 mph 45% 0 in
23:59 57 °F 36 °F 29.8 in SSO 6.2 mph 15 mph 45% 0 in
Murcia-Puente Tocinos, España
Compliments of Weather Underground - 2.75 mb

La estación de MeteoMurcia.com, publica sus datos en los siguientes proyectos:

Weather Underground PWS IMURCIAP2 Meteoclimatic www.awekas.at

W3Counter
Web Analytics